Time;durP1;ratioP1;P1;durP2;ratioP2;P2;SDS_P1;SDS_P2;PMS_P1;PMS_P2;Temp;Humidity;BMP_temperature;BMP_pressure;BME280_temperature;BME280_humidity;BME280_pressure;Samples;Min_cycle;Max_cycle;Signal;HPM_P1;HPM_P2
2023/12/03 00:00:07;;;;;;;9.93;3.40;;;;;;;16.62;74.71;100560.50;5088803;28;20520;-83
2023/12/03 00:02:54;;;;;;;9.93;3.78;;;;;;;16.78;74.65;100582.88;5071213;28;20081;-83
2023/12/03 00:05:20;;;;;;;;;;;;;;;16.94;74.56;100595.63;5065148;28;20656;-83
2023/12/03 00:07:48;;;;;;;7.78;3.40;;;;;;;16.70;74.59;100564.22;5071613;28;20028;-84
2023/12/03 00:10:14;;;;;;;11.95;3.88;;;;;;;16.83;74.78;100590.09;5085928;28;20028;-84
2023/12/03 00:12:40;;;;;;;8.52;3.75;;;;;;;16.94;74.83;100610.56;5088383;28;20031;-85
2023/12/03 00:15:06;;;;;;;6.63;3.08;;;;;;;16.91;74.90;100616.63;5089591;28;20023;-85
2023/12/03 00:17:32;;;;;;;;;;;;;;;16.93;74.81;100614.94;5087173;28;20033;-85
2023/12/03 00:19:58;;;;;;;7.57;3.03;;;;;;;16.75;74.74;100595.97;5107862;28;20407;-83
2023/12/03 00:22:24;;;;;;;5.45;2.90;;;;;;;16.79;75.03;100611.91;5085209;28;20032;-84
2023/12/03 00:24:50;;;;;;;9.45;3.15;;;;;;;16.76;75.03;100600.38;5077302;28;20036;-85
2023/12/03 00:27:16;;;;;;;6.78;3.22;;;;;;;16.88;75.38;100632.41;5082179;28;20111;-85
2023/12/03 00:29:45;;;;;;;7.63;3.08;;;;;;;16.86;75.10;100629.72;5096713;28;20021;-85
2023/12/03 00:32:12;;;;;;;7.53;3.40;;;;;;;16.87;74.95;100630.63;5073622;28;20028;-85
2023/12/03 00:34:37;;;;;;;9.52;3.28;;;;;;;16.73;75.39;100611.75;5101474;28;20051;-84
2023/12/03 00:37:03;;;;;;;7.15;3.40;;;;;;;16.85;75.23;100627.94;5067884;28;20331;-84
2023/12/03 00:39:29;;;;;;;7.55;3.15;;;;;;;16.86;75.34;100627.06;5083721;28;20075;-85
2023/12/03 00:41:56;;;;;;;9.07;3.53;;;;;;;16.88;75.24;100633.28;5073715;28;20111;-84
2023/12/03 00:44:23;;;;;;;8.00;3.40;;;;;;;16.77;74.89;100595.16;5088014;28;20156;-84
2023/12/03 00:46:49;;;;;;;9.80;3.60;;;;;;;16.88;74.84;100625.38;5081291;28;20633;-84
2023/12/03 00:49:16;;;;;;;7.97;3.28;;;;;;;16.81;75.24;100619.91;5081498;28;20052;-84
2023/12/03 00:51:43;;;;;;;6.47;3.17;;;;;;;16.86;75.07;100624.44;5106258;28;20041;-84
2023/12/03 00:54:09;;;;;;;7.55;3.10;;;;;;;16.82;75.10;100625.22;5072264;28;20139;-84
2023/12/03 00:56:35;;;;;;;9.93;3.60;;;;;;;16.65;75.22;100603.63;5070458;28;20081;-84
2023/12/03 00:59:02;;;;;;;9.45;3.28;;;;;;;16.67;74.90;100606.31;5090240;28;20020;-84
2023/12/03 01:01:28;;;;;;;8.25;3.35;;;;;;;16.69;74.87;100617.81;5084942;28;20051;-84
2023/12/03 01:03:54;;;;;;;;;;;;;;;16.92;74.66;100638.66;5075090;28;20035;-84
2023/12/03 01:06:27;;;;;;;7.95;3.33;;;;;;;16.85;74.95;100637.59;5079148;28;19908;-84
2023/12/03 01:08:53;;;;;;;9.30;3.60;;;;;;;16.82;74.91;100629.59;5069984;28;20033;-84
2023/12/03 01:11:20;;;;;;;6.25;3.40;;;;;;;16.87;74.86;100641.19;5096153;28;20519;-84
2023/12/03 01:13:47;;;;;;;6.40;3.25;;;;;;;16.87;74.63;100634.16;5086485;28;20085;-84
2023/12/03 01:16:17;;;;;;;7.28;3.28;;;;;;;16.80;74.81;100631.25;5060326;28;20486;-84
2023/12/03 01:18:43;;;;;;;7.38;3.70;;;;;;;16.85;74.87;100646.41;5099416;28;20036;-84
2023/12/03 01:21:10;;;;;;;7.35;3.40;;;;;;;16.87;74.85;100644.69;5100869;28;20035;-83
2023/12/03 01:23:36;;;;;;;6.82;3.08;;;;;;;16.83;74.98;100648.09;5073858;28;20032;-83
2023/12/03 01:26:02;;;;;;;9.35;3.40;;;;;;;16.85;75.02;100651.69;5087064;28;20123;-84
2023/12/03 01:28:28;;;;;;;9.32;3.58;;;;;;;16.70;74.94;100619.59;5078964;28;20473;-83
2023/12/03 01:30:54;;;;;;;8.15;3.47;;;;;;;16.73;74.86;100627.59;5089223;28;20448;-84
2023/12/03 01:33:20;;;;;;;6.50;2.90;;;;;;;16.63;75.22;100612.38;5092079;28;20043;-83
2023/12/03 01:35:45;;;;;;;9.45;3.60;;;;;;;16.85;74.86;100646.41;5107305;28;20119;-82
2023/12/03 01:38:11;;;;;;;6.05;3.08;;;;;;;16.67;75.23;100611.59;5086354;28;20115;-83
2023/12/03 01:40:37;;;;;;;5.75;3.35;;;;;;;16.72;75.16;100625.81;5070111;28;20120;-82
2023/12/03 01:43:02;;;;;;;6.20;3.53;;;;;;;16.54;75.05;100599.81;5079161;28;20108;-83
2023/12/03 01:45:31;;;;;;;10.63;3.17;;;;;;;16.52;74.83;100590.09;5085744;28;20032;-86
2023/12/03 01:47:58;;;;;;;6.53;3.20;;;;;;;16.80;74.86;100639.19;5093383;27;20056;-83
2023/12/03 01:50:24;;;;;;;7.50;3.40;;;;;;;16.82;75.08;100642.78;5066949;28;20612;-85
2023/12/03 01:52:49;;;;;;;;;;;;;;;16.85;74.66;100640.25;5063688;28;20503;-83
2023/12/03 01:55:18;;;;;;;9.30;3.55;;;;;;;16.82;74.73;100643.66;5078368;28;19951;-84
2023/12/03 01:57:44;;;;;;;7.82;3.42;;;;;;;16.65;74.74;100602.75;5091050;28;20065;-84
2023/12/03 02:00:10;;;;;;;8.85;3.40;;;;;;;16.82;74.58;100650.69;5070518;28;20041;-83
2023/12/03 02:02:35;;;;;;;;;;;;;;;16.88;74.60;100650.88;5090891;28;20401;-83
2023/12/03 02:05:01;;;;;;;8.40;3.15;;;;;;;16.66;74.99;100631.81;5089762;28;20655;-83
2023/12/03 02:07:28;;;;;;;8.45;3.03;;;;;;;16.72;75.09;100632.81;5083824;28;20112;-84
2023/12/03 02:09:53;;;;;;;9.07;3.05;;;;;;;16.52;75.37;100582.19;5094344;28;20632;-83
2023/12/03 02:12:19;;;;;;;7.70;3.30;;;;;;;16.81;74.90;100630.47;5091196;28;20040;-84
2023/12/03 02:14:45;;;;;;;7.70;3.30;;;;;;;16.60;75.07;100604.38;5083892;28;20164;-84
2023/12/03 02:17:12;;;;;;;7.05;3.30;;;;;;;16.61;74.89;100603.50;5062967;28;20047;-84
2023/12/03 02:19:38;;;;;;;7.55;3.50;;;;;;;16.80;74.83;100632.19;5089124;28;20081;-84
2023/12/03 02:22:04;;;;;;;8.00;3.42;;;;;;;16.81;74.86;100630.47;5089039;28;20073;-84
2023/12/03 02:24:30;;;;;;;4.50;2.80;;;;;;;16.82;74.93;100629.59;5066520;28;20070;-84
2023/12/03 02:26:57;;;;;;;7.50;3.45;;;;;;;16.82;74.89;100638.38;5071917;28;20115;-84
2023/12/03 02:29:23;;;;;;;14.98;3.60;;;;;;;16.80;74.90;100650.66;5077113;28;20040;-84
2023/12/03 02:31:49;;;;;;;8.48;3.25;;;;;;;16.81;74.86;100648.94;5102216;28;20054;-83
2023/12/03 02:34:15;;;;;;;8.82;3.10;;;;;;;16.78;74.77;100644.41;5062331;28;20040;-83
2023/12/03 02:36:41;;;;;;;6.95;3.20;;;;;;;16.63;74.96;100618.50;5096121;28;20466;-84
2023/12/03 02:39:07;;;;;;;6.15;3.25;;;;;;;16.79;74.88;100654.13;5078696;28;20043;-84
2023/12/03 02:41:33;;;;;;;8.10;3.30;;;;;;;16.76;74.83;100639.94;5077463;28;20023;-83
2023/12/03 02:43:59;;;;;;;7.43;3.38;;;;;;;16.66;74.92;100623.88;5088504;28;20406;-84
2023/12/03 02:46:24;;;;;;;7.65;3.30;;;;;;;16.75;74.85;100640.81;5072752;28;20036;-83
2023/12/03 02:48:50;;;;;;;7.93;2.92;;;;;;;16.79;74.72;100648.84;5084411;28;20481;-83
2023/12/03 02:51:16;;;;;;;7.88;3.60;;;;;;;16.74;75.01;100636.38;5085728;27;20024;-85
2023/12/03 02:53:45;;;;;;;8.52;3.30;;;;;;;16.83;74.84;100650.75;5080810;28;20135;-84
2023/12/03 02:56:12;;;;;;;7.15;2.97;;;;;;;16.74;74.61;100646.91;5062513;28;20024;-83
2023/12/03 02:58:38;;;;;;;6.57;2.95;;;;;;;16.70;74.67;100640.69;5085457;28;20028;-83
2023/12/03 03:01:05;;;;;;;9.25;3.42;;;;;;;16.85;74.87;100667.50;5088847;28;20020;-83
2023/12/03 03:03:31;;;;;;;7.25;3.33;;;;;;;16.82;74.76;100662.13;5081513;28;20040;-84
2023/12/03 03:05:58;;;;;;;9.05;3.22;;;;;;;16.71;74.69;100642.47;5076641;28;20040;-85
2023/12/03 03:08:24;;;;;;;11.65;3.45;;;;;;;16.68;74.73;100640.66;5066533;28;20184;-84
2023/12/03 03:10:49;;;;;;;6.78;3.15;;;;;;;16.81;74.77;100670.91;5069472;28;20085;-85
2023/12/03 03:13:15;;;;;;;9.57;3.40;;;;;;;16.70;74.60;100648.59;5076225;28;20493;-85
2023/12/03 03:15:41;;;;;;;4.05;2.88;;;;;;;16.72;74.62;100667.09;5082923;28;20028;-85
2023/12/03 03:18:06;;;;;;;8.77;3.22;;;;;;;16.70;74.54;100672.34;5087079;28;20051;-85
2023/12/03 03:20:34;;;;;;;7.78;3.35;;;;;;;16.80;74.73;100684.00;5090742;28;20477;-84
2023/12/03 03:23:00;;;;;;;5.82;3.63;;;;;;;16.76;74.72;100682.13;5099623;27;20512;-84
2023/12/03 03:25:25;;;;;;;7.10;3.13;;;;;;;16.73;74.68;100675.03;5079978;28;20049;-84
2023/12/03 03:27:51;;;;;;;7.07;3.30;;;;;;;16.79;74.73;100690.16;5090464;28;20412;-85
2023/12/03 03:30:18;;;;;;;10.40;3.40;;;;;;;16.44;74.88;100629.41;5088542;28;20027;-84
2023/12/03 03:33:02;;;;;;;7.25;3.30;;;;;;;16.46;74.63;100622.44;5078877;28;20040;-84
2023/12/03 03:35:37;;;;;;;7.55;3.22;;;;;;;16.62;74.42;100652.78;5077971;28;20027;-84
2023/12/03 03:38:03;;;;;;;6.38;3.35;;;;;;;16.36;74.55;100612.50;5070172;28;20485;-85
2023/12/03 03:40:29;;;;;;;8.02;3.42;;;;;;;16.67;74.69;100669.59;5076726;28;20046;-85
2023/12/03 03:42:54;;;;;;;9.38;3.60;;;;;;;16.53;74.84;100645.50;5068500;28;20043;-85
2023/12/03 03:45:20;;;;;;;7.93;3.35;;;;;;;16.80;74.73;100684.00;5068239;28;20029;-84
2023/12/03 03:47:46;;;;;;;8.10;3.50;;;;;;;16.67;74.59;100674.88;5080794;28;20032;-85
2023/12/03 03:50:11;;;;;;;7.88;3.30;;;;;;;16.54;74.59;100643.75;5088458;28;20032;-84
2023/12/03 03:52:37;;;;;;;5.70;2.97;;;;;;;16.78;74.66;100675.16;5082080;28;20024;-84
2023/12/03 03:55:03;;;;;;;7.18;3.13;;;;;;;16.73;74.54;100667.13;5081800;28;20065;-84
2023/12/03 03:57:29;;;;;;;7.43;2.67;;;;;;;16.44;74.71;100626.78;5070484;28;20486;-84
2023/12/03 03:59:59;;;;;;;6.72;3.13;;;;;;;16.81;74.61;100701.66;5075071;28;20043;-84
2023/12/03 04:02:25;;;;;;;5.78;3.00;;;;;;;16.84;74.71;100718.44;5077235;28;20043;-84
2023/12/03 04:04:51;;;;;;;6.20;3.10;;;;;;;16.80;74.67;100718.28;5067453;28;20036;-85
2023/12/03 04:07:17;;;;;;;8.05;3.58;;;;;;;16.80;74.66;100720.94;5086283;28;20036;-84
2023/12/03 04:09:45;;;;;;;7.85;3.03;;;;;;;16.65;74.63;100701.19;5074795;28;20060;-84
2023/12/03 04:12:10;;;;;;;8.05;3.40;;;;;;;16.77;74.61;100726.13;5089863;28;20035;-84
2023/12/03 04:14:36;;;;;;;5.07;2.90;;;;;;;16.71;74.67;100724.22;5076278;28;20028;-84
2023/12/03 04:17:03;;;;;;;8.88;3.22;;;;;;;16.63;74.75;100715.19;5089664;28;20020;-85
2023/12/03 04:19:30;;;;;;;8.45;3.28;;;;;;;16.64;74.68;100712.59;5095369;28;20159;-84
2023/12/03 04:21:57;;;;;;;8.55;3.42;;;;;;;16.64;74.70;100720.50;5082645;28;20033;-84
2023/12/03 04:24:24;;;;;;;6.55;3.30;;;;;;;16.77;74.62;100745.47;5081390;28;20085;-84
2023/12/03 04:26:50;;;;;;;7.22;3.33;;;;;;;16.77;74.68;100739.31;5069212;28;20028;-84
2023/12/03 04:29:16;;;;;;;7.22;3.45;;;;;;;16.51;74.60;100693.72;5085348;28;20028;-84
2023/12/03 04:31:42;;;;;;;7.50;3.25;;;;;;;16.79;74.72;100741.13;5091144;28;20033;-85
2023/12/03 04:34:08;;;;;;;7.25;3.30;;;;;;;16.78;74.65;100747.25;5108900;28;20067;-85
2023/12/03 04:36:33;;;;;;;7.82;3.60;;;;;;;16.80;74.59;100749.94;5074382;28;20036;-85
2023/12/03 04:38:59;;;;;;;6.28;3.58;;;;;;;16.80;74.78;100750.84;5080050;28;20064;-85
2023/12/03 04:41:35;;;;;;;6.97;3.05;;;;;;;16.80;74.77;100756.13;5075971;28;20675;-84
2023/12/03 04:44:01;;;;;;;7.43;3.15;;;;;;;16.75;74.61;100749.81;5080645;28;20039;-85
2023/12/03 04:46:28;;;;;;;6.97;3.20;;;;;;;16.81;74.83;100764.97;5092810;28;20552;-84
2023/12/03 04:48:54;;;;;;;8.15;3.25;;;;;;;16.77;74.81;100758.66;5085926;28;20119;-84
2023/12/03 04:51:19;;;;;;;6.15;2.70;;;;;;;16.64;74.76;100733.69;5106326;28;20121;-85
2023/12/03 04:53:54;;;;;;;8.75;3.50;;;;;;;16.55;74.65;100730.81;5101225;28;20036;-83
2023/12/03 05:03:31;;;;;;;5.25;2.83;;;;;;;16.82;74.77;100778.16;5087856;28;20043;-86
2023/12/03 05:06:31;;;;;;;6.82;3.17;;;;;;;16.83;74.77;100790.53;5065210;28;20028;-84
2023/12/03 05:08:57;;;;;;;6.53;3.10;;;;;;;16.35;74.53;100710.88;5087531;28;20020;-83
2023/12/03 05:11:26;;;;;;;6.80;3.15;;;;;;;16.21;74.68;100686.72;5074268;28;20040;-86
2023/12/03 05:13:52;;;;;;;6.07;3.35;;;;;;;16.44;74.71;100730.47;5085658;28;20032;-86
2023/12/03 05:16:18;;;;;;;8.73;3.30;;;;;;;16.82;74.76;100798.38;5076748;28;20508;-84
2023/12/03 05:18:44;;;;;;;7.70;3.70;;;;;;;16.73;74.51;100779.63;5088511;28;20527;-83
2023/12/03 05:21:11;;;;;;;6.93;3.20;;;;;;;16.81;74.66;100809.81;5085328;28;20123;-84
2023/12/03 05:23:38;;;;;;;6.30;3.17;;;;;;;16.80;74.77;100808.88;5073968;28;20039;-83
2023/12/03 05:26:04;;;;;;;7.43;3.58;;;;;;;16.66;74.66;100774.19;5069309;28;20024;-85
2023/12/03 05:28:29;;;;;;;5.80;3.25;;;;;;;16.82;74.46;100804.53;5094470;28;20033;-84
2023/12/03 05:30:55;;;;;;;5.10;3.10;;;;;;;16.68;74.57;100785.66;5078259;28;20059;-84
2023/12/03 05:33:21;;;;;;;7.07;3.38;;;;;;;16.66;74.67;100790.00;5082461;28;21792;-85
2023/12/03 05:35:46;;;;;;;6.75;3.38;;;;;;;16.66;74.84;100792.63;5086494;28;20032;-84
2023/12/03 05:38:12;;;;;;;10.77;3.78;;;;;;;16.77;74.47;100798.22;5080183;28;20032;-84
2023/12/03 05:40:38;;;;;;;8.55;3.42;;;;;;;16.81;74.37;100820.34;5081006;28;20453;-83
2023/12/03 05:43:10;;;;;;;7.95;3.38;;;;;;;16.84;74.71;100828.34;5091177;28;20037;-83
2023/12/03 05:45:40;;;;;;;8.55;3.65;;;;;;;16.84;74.67;100820.41;5081682;28;20479;-85
2023/12/03 05:48:06;;;;;;;6.93;3.40;;;;;;;16.76;74.38;100804.31;5086209;27;20117;-85
2023/12/03 05:50:33;;;;;;;5.60;3.33;;;;;;;16.83;74.50;100824.81;5083048;28;20020;-83
2023/12/03 05:52:59;;;;;;;7.55;3.78;;;;;;;16.69;74.30;100792.72;5068896;28;20028;-83
2023/12/03 05:55:25;;;;;;;7.28;3.58;;;;;;;16.68;74.67;100801.50;5094621;28;20035;-83
2023/12/03 05:57:50;;;;;;;7.38;3.70;;;;;;;16.72;74.38;100804.19;5082686;28;20024;-83
2023/12/03 06:00:16;;;;;;;9.30;3.95;;;;;;;16.60;74.56;100797.72;5075622;28;20032;-82
2023/12/03 06:02:42;;;;;;;;;;;;;;;16.86;74.60;100842.47;5086130;27;20035;-83
2023/12/03 06:05:09;;;;;;;8.90;3.65;;;;;;;16.83;74.73;100850.31;5101600;28;20300;-82
2023/12/03 06:07:35;;;;;;;6.22;3.58;;;;;;;16.59;74.59;100819.66;5098216;28;20463;-83
2023/12/03 06:10:00;;;;;;;6.15;3.25;;;;;;;16.82;74.61;100865.19;5105656;27;20054;-84
2023/12/03 06:12:27;;;;;;;6.53;3.70;;;;;;;16.77;74.48;100852.72;5077949;28;20075;-84
2023/12/03 06:14:52;;;;;;;;;;;;;;;16.85;74.51;100869.69;5091178;28;20060;-84
2023/12/03 06:17:18;;;;;;;7.40;3.13;;;;;;;16.66;74.37;100821.63;5093860;28;19960;-85
2023/12/03 06:19:44;;;;;;;6.88;3.08;;;;;;;16.81;74.57;100871.34;5090574;28;20056;-85
2023/12/03 06:22:10;;;;;;;8.02;3.42;;;;;;;16.81;74.27;100866.06;5065699;28;20085;-84
2023/12/03 06:24:36;;;;;;;8.02;3.53;;;;;;;16.76;74.10;100853.56;5067374;28;20035;-83
2023/12/03 06:27:02;;;;;;;7.72;3.47;;;;;;;16.79;74.18;100861.56;5086951;28;20412;-82
2023/12/03 06:29:27;;;;;;;6.63;3.38;;;;;;;16.85;74.21;100875.88;5092344;28;20036;-82
2023/12/03 06:31:53;;;;;;;7.53;3.58;;;;;;;16.86;74.34;100888.19;5078313;28;20029;-82
2023/12/03 06:34:19;;;;;;;9.00;3.67;;;;;;;16.70;74.40;100864.81;5098552;27;20036;-82
2023/12/03 06:36:45;;;;;;;9.85;3.50;;;;;;;16.69;74.04;100863.91;5084287;28;20106;-83
2023/12/03 06:39:10;;;;;;;;;;;;;;;16.90;74.38;100889.19;5084930;28;20040;-82
2023/12/03 06:41:36;;;;;;;5.35;3.40;;;;;;;16.79;74.38;100888.81;5085704;28;19919;-83
2023/12/03 06:44:02;;;;;;;6.22;3.50;;;;;;;16.85;73.94;100907.53;5079316;28;20512;-82
2023/12/03 06:46:28;;;;;;;6.30;3.38;;;;;;;16.83;74.06;100898.66;5091893;28;20119;-83
2023/12/03 06:48:57;;;;;;;7.88;3.42;;;;;;;16.84;74.13;100910.97;5080394;28;20047;-83
2023/12/03 06:51:24;;;;;;;5.72;3.22;;;;;;;16.78;74.34;100889.66;5084958;28;20058;-81
2023/12/03 06:53:49;;;;;;;6.28;3.42;;;;;;;16.87;74.17;100907.56;5125909;27;20063;-82
2023/12/03 06:56:15;;;;;;;6.95;3.60;;;;;;;16.87;73.98;100908.47;5085562;28;20413;-83
2023/12/03 06:58:41;;;;;;;6.60;3.20;;;;;;;16.74;73.66;100886.88;5084946;28;20028;-83
2023/12/03 07:01:07;;;;;;;5.68;3.30;;;;;;;16.76;73.88;100895.75;5077984;28;20032;-83
2023/12/03 07:03:32;;;;;;;8.15;4.40;;;;;;;16.84;74.18;100900.44;5081927;28;20084;-83
2023/12/03 07:05:59;;;;;;;5.63;3.65;;;;;;;16.73;73.90;100887.75;5088728;28;20477;-83
2023/12/03 07:08:26;;;;;;;8.38;3.97;;;;;;;16.64;74.00;100880.47;5074345;28;20036;-85
2023/12/03 07:10:52;;;;;;;7.82;3.70;;;;;;;16.84;74.09;100929.44;5087460;28;20020;-86
2023/12/03 07:13:17;;;;;;;8.25;4.32;;;;;;;16.76;74.00;100914.19;5093417;28;20374;-84
2023/12/03 07:15:43;;;;;;;6.53;4.30;;;;;;;16.86;74.21;100921.59;5080360;28;20062;-83
2023/12/03 07:18:08;;;;;;;11.93;4.97;;;;;;;16.89;74.00;100924.34;5082538;28;20059;-82
2023/12/03 07:20:34;;;;;;;10.38;4.65;;;;;;;16.84;74.08;100923.28;5089454;28;20028;-83
2023/12/03 07:23:00;;;;;;;9.05;4.90;;;;;;;16.87;73.79;100937.47;5079683;28;20032;-83
2023/12/03 07:25:25;;;;;;;8.30;4.45;;;;;;;16.87;74.28;100940.13;5087648;28;20044;-83
2023/12/03 07:27:51;;;;;;;8.15;4.95;;;;;;;16.68;74.25;100913.97;5089422;28;20028;-83
2023/12/03 07:30:18;;;;;;;8.68;5.45;;;;;;;16.74;73.94;100924.69;5070702;28;20028;-83
2023/12/03 07:32:44;;;;;;;10.55;5.40;;;;;;;16.78;73.95;100926.59;5076676;28;20028;-83
2023/12/03 07:35:10;;;;;;;10.77;5.80;;;;;;;16.77;74.05;100935.34;5095903;28;20822;-83
2023/12/03 07:37:39;;;;;;;11.15;6.10;;;;;;;16.87;73.96;100944.50;5086392;28;20119;-83
2023/12/03 07:43:27;;;;;;;10.38;6.22;;;;;;;16.60;73.91;100897.03;5081935;28;20043;-83
2023/12/03 07:45:53;;;;;;;10.95;6.47;;;;;;;16.48;73.92;100879.94;5087835;28;20020;-82
2023/12/03 07:48:19;;;;;;;10.45;6.47;;;;;;;16.48;73.91;100868.53;5081041;28;20050;-82
2023/12/03 07:50:44;;;;;;;9.07;6.15;;;;;;;16.87;73.62;100941.88;5079577;28;20012;-81
2023/12/03 07:53:11;;;;;;;11.40;6.38;;;;;;;16.93;73.75;100949.94;5088168;28;20056;-81
2023/12/03 07:55:37;;;;;;;9.75;6.10;;;;;;;16.93;73.88;100956.97;5084951;28;20028;-81
2023/12/03 07:58:03;;;;;;;11.30;6.68;;;;;;;16.85;73.79;100944.44;5080590;28;20025;-81
2023/12/03 08:00:29;;;;;;;10.15;6.30;;;;;;;16.95;73.82;100966.72;5081850;28;20028;-81
2023/12/03 08:02:55;;;;;;;14.90;7.20;;;;;;;16.50;73.58;100906.38;5094856;28;20405;-82
2023/12/03 08:05:20;;;;;;;10.13;6.40;;;;;;;16.84;73.82;100961.09;5085269;28;20028;-82
2023/12/03 08:07:46;;;;;;;12.48;6.82;;;;;;;16.75;73.76;100951.97;5083815;28;21018;-81
2023/12/03 08:10:12;;;;;;;10.52;6.35;;;;;;;16.86;74.82;100982.25;5084045;28;20477;-82
2023/12/03 08:12:37;;;;;;;9.48;6.50;;;;;;;16.82;74.30;100959.25;5084321;28;20027;-83
2023/12/03 08:15:03;;;;;;;12.45;6.97;;;;;;;16.92;74.22;100968.38;5083701;28;20032;-83
2023/12/03 08:17:29;;;;;;;;;;;;;;;17.00;74.22;100987.97;5079154;28;20486;-83
2023/12/03 08:19:54;;;;;;;10.82;6.30;;;;;;;16.88;74.51;100976.19;5087647;28;19994;-81
2023/12/03 08:22:20;;;;;;;10.25;6.43;;;;;;;16.87;74.75;100973.50;5082378;28;20071;-81
2023/12/03 08:24:46;;;;;;;10.40;6.30;;;;;;;16.89;74.93;100971.81;5087495;28;20023;-80
2023/12/03 08:27:11;;;;;;;9.35;6.05;;;;;;;16.91;74.88;100985.91;5079058;28;20028;-81
2023/12/03 08:29:38;;;;;;;9.88;6.88;;;;;;;16.89;74.90;100987.66;5089876;28;20028;-81
2023/12/03 08:32:04;;;;;;;12.80;7.15;;;;;;;16.78;75.43;100963.50;5078654;28;20031;-83
2023/12/03 08:34:30;;;;;;;;;;;;;;;16.92;75.17;100979.81;5074752;28;20462;-83
2023/12/03 08:36:55;;;;;;;10.68;6.00;;;;;;;16.90;75.18;100986.78;5090525;28;19912;-82
2023/12/03 08:39:21;;;;;;;9.80;6.13;;;;;;;16.83;74.90;100967.22;5081362;28;20486;-82
2023/12/03 08:41:47;;;;;;;9.35;6.60;;;;;;;16.92;75.43;100976.28;5079069;28;20031;-83
2023/12/03 08:44:13;;;;;;;9.38;6.15;;;;;;;16.89;75.65;100972.72;5090746;28;20032;-83
2023/12/03 08:46:40;;;;;;;9.55;5.95;;;;;;;16.93;75.35;100976.31;5093968;28;20063;-83
2023/12/03 08:49:06;;;;;;;13.52;5.53;;;;;;;16.91;75.76;100983.28;5079635;28;20029;-83
2023/12/03 08:51:34;;;;;;;12.88;6.78;;;;;;;16.87;75.84;100973.50;5086930;28;20032;-82
2023/12/03 08:54:00;;;;;;;11.35;5.95;;;;;;;16.81;75.96;100970.69;5100775;28;20044;-82
2023/12/03 08:56:27;;;;;;;12.25;6.15;;;;;;;16.89;75.76;100983.25;5087999;28;20078;-83
2023/12/03 08:58:57;;;;;;;12.93;6.07;;;;;;;16.88;76.00;100978.81;5087330;28;20063;-83
2023/12/03 09:01:23;;;;;;;9.77;6.60;;;;;;;16.85;76.15;100967.28;5074588;28;20037;-83
2023/12/03 09:03:49;;;;;;;15.45;7.20;;;;;;;16.91;75.89;100971.84;5079442;28;20554;-83
2023/12/03 09:06:18;;;;;;;16.48;6.80;;;;;;;16.83;75.87;100961.06;5087913;28;20065;-82
2023/12/03 09:08:44;;;;;;;13.10;6.45;;;;;;;16.96;75.93;100980.81;5072732;28;20070;-84
2023/12/03 09:11:11;;;;;;;11.75;6.18;;;;;;;16.81;76.08;100965.41;5081873;28;20031;-84
2023/12/03 09:13:38;;;;;;;10.88;6.22;;;;;;;16.95;76.05;100981.66;5087856;28;20067;-84
2023/12/03 09:16:05;;;;;;;14.55;6.40;;;;;;;16.91;75.99;100977.13;5084808;28;20043;-83
2023/12/03 09:18:33;;;;;;;12.15;6.25;;;;;;;16.82;76.02;100954.00;5089172;28;20436;-84
2023/12/03 09:20:59;;;;;;;14.50;6.50;;;;;;;16.97;75.84;100977.31;5089708;28;20602;-83
2023/12/03 09:23:25;;;;;;;12.18;5.93;;;;;;;16.94;76.06;100980.75;5090035;28;20036;-84
2023/12/03 09:25:51;;;;;;;11.68;5.43;;;;;;;16.95;76.08;100990.44;5091605;28;20472;-83
2023/12/03 09:28:17;;;;;;;14.63;6.00;;;;;;;16.93;76.05;100976.31;5079440;28;20100;-83
2023/12/03 09:30:43;;;;;;;14.60;5.93;;;;;;;16.87;76.08;100973.50;5080147;28;20461;-83
2023/12/03 09:33:09;;;;;;;11.30;6.65;;;;;;;16.98;75.92;100982.66;5078211;28;20032;-82
2023/12/03 09:35:35;;;;;;;14.70;6.47;;;;;;;16.77;75.96;100955.56;5089744;28;20096;-83
2023/12/03 09:38:01;;;;;;;9.90;6.15;;;;;;;16.90;76.18;100981.50;5084317;28;20036;-82
2023/12/03 09:40:27;;;;;;;14.32;6.47;;;;;;;16.84;75.90;100958.47;5091759;28;20108;-83
2023/12/03 09:42:56;;;;;;;9.15;6.00;;;;;;;16.79;76.26;100948.59;5094019;28;20485;-83
2023/12/03 09:45:26;;;;;;;13.40;6.10;;;;;;;16.89;76.11;100972.72;5084509;28;20119;-83
2023/12/03 09:47:57;;;;;;;12.90;6.07;;;;;;;16.96;76.15;100986.09;5063584;28;20110;-82
2023/12/03 09:50:23;;;;;;;12.88;6.07;;;;;;;16.89;76.13;100977.97;5083260;28;20020;-84
2023/12/03 09:52:52;;;;;;;;;;;;;;;16.99;75.85;100984.44;5083476;28;20024;-84
2023/12/03 09:55:20;;;;;;;14.57;6.13;;;;;;;16.79;76.15;100964.44;5093333;28;19965;-84
2023/12/03 09:57:48;;;;;;;10.85;5.70;;;;;;;16.95;76.39;100984.28;5088341;28;20028;-84
2023/12/03 10:00:15;;;;;;;10.27;5.32;;;;;;;16.98;76.08;100985.28;5085557;28;20043;-84
2023/12/03 10:02:41;;;;;;;10.30;5.85;;;;;;;16.77;76.10;100947.66;5105399;28;20020;-84
2023/12/03 10:05:07;;;;;;;12.55;5.80;;;;;;;16.80;76.35;100955.66;5062649;28;20028;-84
2023/12/03 10:07:37;;;;;;;13.65;6.47;;;;;;;16.88;76.13;100962.09;5090812;28;20032;-84
2023/12/03 10:10:04;;;;;;;10.45;5.70;;;;;;;16.88;75.75;100949.81;5093421;27;21442;-84
2023/12/03 10:12:40;;;;;;;9.63;5.78;;;;;;;16.80;75.91;100950.38;5080793;28;20546;-84
2023/12/03 10:15:08;;;;;;;;;;;;;;;16.97;76.16;100983.47;5094504;28;20094;-83
2023/12/03 10:17:35;;;;;;;8.10;5.03;;;;;;;16.94;76.46;100982.50;5081026;28;19916;-84
2023/12/03 10:20:26;;;;;;;10.18;5.40;;;;;;;16.98;76.25;100974.72;5075763;28;20040;-84
2023/12/03 10:23:02;;;;;;;8.30;5.75;;;;;;;16.86;76.26;100956.75;5056754;28;20040;-84
2023/12/03 10:25:35;;;;;;;10.30;5.25;;;;;;;16.84;76.18;100952.31;5083476;28;20032;-83
2023/12/03 10:28:05;;;;;;;7.55;5.72;;;;;;;16.94;76.17;100962.28;5056680;28;20505;-83
2023/12/03 10:30:32;;;;;;;11.27;5.97;;;;;;;16.98;76.25;100980.00;5069459;28;20592;-82
2023/12/03 10:32:58;;;;;;;10.90;5.70;;;;;;;17.00;76.00;100977.44;5067520;28;20024;-82
2023/12/03 10:35:25;;;;;;;9.85;5.60;;;;;;;17.03;76.03;100975.75;5060385;28;20025;-83
2023/12/03 10:37:52;;;;;;;9.45;5.60;;;;;;;17.01;75.95;100984.47;5091584;28;20028;-83
2023/12/03 10:40:19;;;;;;;9.52;5.30;;;;;;;17.01;76.10;100989.75;5067344;28;20469;-83
2023/12/03 10:42:46;;;;;;;8.35;5.22;;;;;;;17.00;76.15;100980.97;5063909;28;20482;-83
2023/12/03 10:45:13;;;;;;;12.40;5.78;;;;;;;17.00;76.11;100978.31;5070098;28;20547;-82
2023/12/03 10:47:40;;;;;;;9.45;5.30;;;;;;;16.90;76.19;100963.03;5057143;28;20070;-84
2023/12/03 10:50:09;;;;;;;9.98;5.45;;;;;;;16.89;76.18;100958.63;5065850;28;20012;-82
2023/12/03 10:52:38;;;;;;;12.57;5.50;;;;;;;16.97;76.23;100972.94;5070136;28;20111;-82
2023/12/03 10:55:06;;;;;;;9.82;5.55;;;;;;;17.01;76.17;100971.28;5064584;28;20077;-82
2023/12/03 10:57:34;;;;;;;10.90;5.53;;;;;;;17.00;76.25;100977.44;5074448;28;20444;-83
2023/12/03 11:00:10;;;;;;;10.50;5.30;;;;;;;16.96;76.23;100972.91;5075498;28;20406;-83
2023/12/03 11:02:47;;;;;;;11.07;5.40;;;;;;;16.98;76.29;100979.13;5062368;28;20111;-82
2023/12/03 11:05:15;;;;;;;;;;;;;;;17.00;76.31;100990.63;5070257;28;20048;-85
2023/12/03 11:07:43;;;;;;;8.45;5.05;;;;;;;16.89;76.29;100974.47;5060130;28;19919;-82
2023/12/03 11:10:10;;;;;;;9.52;5.45;;;;;;;16.81;76.17;100961.03;5069319;28;20024;-84
2023/12/03 11:12:36;;;;;;;7.95;5.10;;;;;;;17.00;76.20;100996.78;5059590;28;20094;-84
2023/12/03 11:15:03;;;;;;;11.48;5.32;;;;;;;17.01;76.00;100995.03;5068161;28;20024;-84
2023/12/03 11:17:35;;;;;;;9.63;5.57;;;;;;;17.03;75.90;100998.63;5056095;28;20024;-84
2023/12/03 11:20:16;;;;;;;9.50;5.28;;;;;;;17.05;76.00;101004.84;5076627;28;20048;-88
2023/12/03 11:23:13;;;;;;;10.27;5.05;;;;;;;17.02;76.22;101004.75;5078492;28;20024;-87
2023/12/03 11:25:55;;;;;;;11.77;5.82;;;;;;;16.79;75.75;100960.03;5072035;28;20048;-87
2023/12/03 11:28:22;;;;;;;12.20;6.25;;;;;;;17.05;76.14;101011.00;5070917;28;20101;-88
2023/12/03 11:30:48;;;;;;;11.48;6.57;;;;;;;16.81;76.04;100971.56;5077539;28;20029;-87
2023/12/03 11:33:15;;;;;;;13.82;7.05;;;;;;;17.01;76.17;101018.78;5058069;28;20115;-86
2023/12/03 11:36:09;;;;;;;11.50;6.45;;;;;;;17.06;75.78;101025.13;5059362;28;20040;-87